EST,Max TemperatureF,Mean TemperatureF,Min TemperatureF,Max Dew PointF,MeanDew PointF,Min DewpointF,Max Humidity, Mean Humidity, Min Humidity, Max Sea Level PressureIn, Mean Sea Level PressureIn, Min Sea Level PressureIn, Max VisibilityMiles, Mean VisibilityMiles, Min VisibilityMiles, Max Wind SpeedMPH, Mean Wind SpeedMPH, Max Gust SpeedMPH,PrecipitationIn, CloudCover, Events, WindDirDegrees
2012-2-1,71,60,49,51,39,30,67,50,32,30.09,30.04,29.99,10,10,8,15,7,25,0.02,2,Rain,202
2012-2-2,64,52,39,54,45,26,100,64,27,30.33,30.04,29.96,10,5,0,16,6,30,0.59,5,Fog-Rain,13
2012-2-3,54,42,30,30,26,25,75,54,32,30.51,30.41,30.34,10,10,10,10,2,14,0.00,0,,178
2012-2-4,44,37,29,34,31,26,85,74,62,30.33,30.20,30.09,10,10,8,9,3,12,T,6,Rain,66
2012-2-5,44,36,28,36,31,25,100,77,53,30.25,30.13,30.05,10,7,2,12,3,15,T,6,Rain,39
2012-2-6,52,39,25,33,28,24,92,66,39,30.27,30.18,30.08,10,10,8,14,5,18,0.00,1,,206
2012-2-7,60,48,36,33,25,20,70,47,23,30.21,30.13,30.09,10,10,10,9,3,14,0.00,0,,217
2012-2-8,42,36,30,36,31,26,96,76,55,30.25,30.16,30.10,10,4,0,7,1,13,0.04,6,Fog-Rain,50
2012-2-9,49,41,33,32,23,16,96,62,28,30.26,30.19,30.15,10,10,4,12,4,12,0.00,2,,210
2012-2-10,47,37,27,36,26,20,75,59,42,30.17,30.04,29.89,10,10,6,8,2,13,0.02,4,Rain,118
2012-2-11,42,33,24,36,26,3,92,63,33,29.95,29.80,29.68,10,6,2,20,6,38,0.04,7,Rain,328
2012-2-12,36,27,18,7,3,-1,49,37,25,30.14,30.09,29.97,10,10,10,16,7,31,0.00,1,,316
2012-2-13,50,38,26,19,11,7,47,34,20,30.20,30.13,30.08,10,10,10,12,4,15,0.00,1,,197
2012-2-14,55,45,34,35,26,17,69,51,32,30.07,30.01,29.93,10,10,10,17,7,23,T,7,,207
2012-2-15,59,49,38,36,29,24,76,51,26,30.29,30.19,30.02,10,10,10,14,2,14,T,2,,171
2012-2-16,46,44,42,43,39,28,96,75,53,30.26,30.09,30.00,10,5,0,9,3,12,0.24,7,Fog-Rain,179
2012-2-17,57,46,35,41,34,24,100,66,32,30.11,30.04,29.99,10,6,0,12,2,15,0.00,2,Fog,286
2012-2-18,61,46,30,34,26,22,78,52,26,30.11,30.02,29.90,10,10,10,16,5,24,0.00,0,,201
2012-2-19,47,40,33,32,28,21,96,71,45,30.09,29.96,29.88,10,5,0,14,5,18,0.42,7,Fog-Snow,40
2012-2-20,47,36,25,31,27,24,92,67,42,30.34,30.20,29.98,10,9,4,6,1,8,0.00,1,,143
2012-2-21,50,37,23,32,28,21,92,69,46,30.34,30.12,29.88,10,10,9,25,7,35,0.00,2,,208
2012-2-22,63,50,36,44,35,29,82,56,29,29.86,29.69,29.49,10,10,10,23,10,35,T,2,,219
2012-2-23,69,55,40,45,42,39,96,66,35,29.62,29.57,29.49,10,10,10,14,6,28,T,2,,198
2012-2-24,77,60,42,59,43,21,83,58,32,29.75,29.49,29.34,10,9,1,20,6,33,0.22,4,Rain,275
2012-2-25,46,39,32,24,15,9,59,42,25,30.31,29.99,29.77,10,10,10,18,8,37,T,2,Rain,277
2012-2-26,50,39,27,18,15,11,50,37,24,30.48,30.41,30.34,10,10,10,14,4,21,0.00,0,,192
2012-2-27,65,46,27,39,27,18,75,51,26,30.39,30.30,30.19,10,10,10,21,9,25,0.00,0,,197
2012-2-28,62,50,38,28,21,16,71,46,20,30.44,30.36,30.29,10,10,10,10,4,21,0.00,0,,135
2012-2-29,58,46,34,55,45,25,93,69,45,30.28,29.94,29.67,10,6,1,23,6,35,1.10,6,Rain-Thunderstorm,195